sensor_id;sensor_type;location;lat;lon;timestamp;temperature;humidity
13436;DHT22;6790;49.520;8.504;2023-07-13T00:01:51;20.60;70.80
13436;DHT22;6790;49.520;8.504;2023-07-13T00:04:20;20.50;73.30
13436;DHT22;6790;49.520;8.504;2023-07-13T00:06:48;20.40;72.90
13436;DHT22;6790;49.520;8.504;2023-07-13T00:09:15;20.30;76.10
13436;DHT22;6790;49.520;8.504;2023-07-13T00:11:41;20.20;76.10
13436;DHT22;6790;49.520;8.504;2023-07-13T00:14:08;20.20;77.20
13436;DHT22;6790;49.520;8.504;2023-07-13T00:16:36;20.10;77.10
13436;DHT22;6790;49.520;8.504;2023-07-13T00:19:03;20.00;76.00
13436;DHT22;6790;49.520;8.504;2023-07-13T00:21:29;20.10;77.20
13436;DHT22;6790;49.520;8.504;2023-07-13T00:23:55;20.10;77.80
13436;DHT22;6790;49.520;8.504;2023-07-13T00:26:20;20.00;77.80
13436;DHT22;6790;49.520;8.504;2023-07-13T00:28:46;20.00;79.10
13436;DHT22;6790;49.520;8.504;2023-07-13T00:31:13;19.90;78.30
13436;DHT22;6790;49.520;8.504;2023-07-13T00:33:40;19.90;83.30
13436;DHT22;6790;49.520;8.504;2023-07-13T00:36:06;19.80;81.60
13436;DHT22;6790;49.520;8.504;2023-07-13T00:38:32;19.80;80.90
13436;DHT22;6790;49.520;8.504;2023-07-13T00:40:58;19.70;80.10
13436;DHT22;6790;49.520;8.504;2023-07-13T00:43:26;19.70;83.50
13436;DHT22;6790;49.520;8.504;2023-07-13T00:48:25;19.50;84.20
13436;DHT22;6790;49.520;8.504;2023-07-13T00:50:56;19.50;84.30
13436;DHT22;6790;49.520;8.504;2023-07-13T00:53:27;19.50;84.20
13436;DHT22;6790;49.520;8.504;2023-07-13T00:55:55;19.50;83.20
13436;DHT22;6790;49.520;8.504;2023-07-13T00:58:22;19.40;86.50
13436;DHT22;6790;49.520;8.504;2023-07-13T01:00:51;19.30;88.20
13436;DHT22;6790;49.520;8.504;2023-07-13T01:03:17;19.20;89.20
13436;DHT22;6790;49.520;8.504;2023-07-13T01:05:43;19.10;89.80
13436;DHT22;6790;49.520;8.504;2023-07-13T01:08:09;19.10;90.40
13436;DHT22;6790;49.520;8.504;2023-07-13T01:10:35;19.10;91.50
13436;DHT22;6790;49.520;8.504;2023-07-13T01:13:08;19.10;91.10
13436;DHT22;6790;49.520;8.504;2023-07-13T01:15:44;19.00;90.40
13436;DHT22;6790;49.520;8.504;2023-07-13T01:18:32;19.00;90.20
13436;DHT22;6790;49.520;8.504;2023-07-13T01:21:03;19.00;91.00
13436;DHT22;6790;49.520;8.504;2023-07-13T01:23:31;18.90;90.70
13436;DHT22;6790;49.520;8.504;2023-07-13T01:25:58;18.90;91.30
13436;DHT22;6790;49.520;8.504;2023-07-13T01:28:25;18.90;90.60
13436;DHT22;6790;49.520;8.504;2023-07-13T01:30:53;18.90;90.80
13436;DHT22;6790;49.520;8.504;2023-07-13T01:33:20;18.80;92.10
13436;DHT22;6790;49.520;8.504;2023-07-13T01:35:46;18.80;91.00
13436;DHT22;6790;49.520;8.504;2023-07-13T01:38:15;18.90;91.40
13436;DHT22;6790;49.520;8.504;2023-07-13T01:40:42;18.80;91.00
13436;DHT22;6790;49.520;8.504;2023-07-13T01:43:09;18.80;91.40
13436;DHT22;6790;49.520;8.504;2023-07-13T01:45:35;18.70;91.60
13436;DHT22;6790;49.520;8.504;2023-07-13T01:48:01;18.80;91.80
13436;DHT22;6790;49.520;8.504;2023-07-13T01:50:27;18.80;92.00
13436;DHT22;6790;49.520;8.504;2023-07-13T01:52:53;18.70;90.70
13436;DHT22;6790;49.520;8.504;2023-07-13T01:55:20;18.70;91.40
13436;DHT22;6790;49.520;8.504;2023-07-13T01:57:46;18.70;90.90
13436;DHT22;6790;49.520;8.504;2023-07-13T02:00:13;18.80;91.70
13436;DHT22;6790;49.520;8.504;2023-07-13T02:02:39;18.60;93.60
13436;DHT22;6790;49.520;8.504;2023-07-13T02:05:05;18.50;93.60
13436;DHT22;6790;49.520;8.504;2023-07-13T02:07:31;18.50;93.50
13436;DHT22;6790;49.520;8.504;2023-07-13T02:09:57;18.30;95.20
13436;DHT22;6790;49.520;8.504;2023-07-13T02:12:23;18.40;93.50
13436;DHT22;6790;49.520;8.504;2023-07-13T02:14:49;18.50;94.90
13436;DHT22;6790;49.520;8.504;2023-07-13T02:17:15;18.40;94.50
13436;DHT22;6790;49.520;8.504;2023-07-13T02:19:40;18.40;93.70
13436;DHT22;6790;49.520;8.504;2023-07-13T02:22:06;18.40;94.60
13436;DHT22;6790;49.520;8.504;2023-07-13T02:24:32;18.40;94.00
13436;DHT22;6790;49.520;8.504;2023-07-13T02:26:58;18.30;95.20
13436;DHT22;6790;49.520;8.504;2023-07-13T02:29:23;18.30;96.40
13436;DHT22;6790;49.520;8.504;2023-07-13T02:31:49;18.30;95.80
13436;DHT22;6790;49.520;8.504;2023-07-13T02:34:15;18.20;97.10
13436;DHT22;6790;49.520;8.504;2023-07-13T02:36:41;18.20;95.80
13436;DHT22;6790;49.520;8.504;2023-07-13T02:39:11;18.20;96.00
13436;DHT22;6790;49.520;8.504;2023-07-13T02:41:38;18.20;96.80
13436;DHT22;6790;49.520;8.504;2023-07-13T02:44:03;18.00;97.30
13436;DHT22;6790;49.520;8.504;2023-07-13T02:46:30;17.80;98.00
13436;DHT22;6790;49.520;8.504;2023-07-13T02:48:57;17.70;98.00
13436;DHT22;6790;49.520;8.504;2023-07-13T02:51:22;17.50;98.40
13436;DHT22;6790;49.520;8.504;2023-07-13T02:53:48;17.40;99.50
13436;DHT22;6790;49.520;8.504;2023-07-13T02:56:14;17.20;99.90
13436;DHT22;6790;49.520;8.504;2023-07-13T02:58:39;17.10;99.90
13436;DHT22;6790;49.520;8.504;2023-07-13T03:01:09;17.00;99.90
13436;DHT22;6790;49.520;8.504;2023-07-13T03:03:35;16.80;99.90
13436;DHT22;6790;49.520;8.504;2023-07-13T03:06:02;16.70;99.90
13436;DHT22;6790;49.520;8.504;2023-07-13T03:08:30;16.60;99.90
13436;DHT22;6790;49.520;8.504;2023-07-13T03:11:04;16.50;99.90
13436;DHT22;6790;49.520;8.504;2023-07-13T03:13:31;16.50;99.90
13436;DHT22;6790;49.520;8.504;2023-07-13T03:15:57;16.40;99.90
13436;DHT22;6790;49.520;8.504;2023-07-13T03:18:23;16.40;99.90
13436;DHT22;6790;49.520;8.504;2023-07-13T03:20:51;16.30;99.90
13436;DHT22;6790;49.520;8.504;2023-07-13T03:23:18;16.30;99.90
13436;DHT22;6790;49.520;8.504;2023-07-13T03:25:44;16.20;99.90
13436;DHT22;6790;49.520;8.504;2023-07-13T03:28:13;16.20;99.90
13436;DHT22;6790;49.520;8.504;2023-07-13T03:30:40;16.20;99.90
13436;DHT22;6790;49.520;8.504;2023-07-13T03:33:06;16.10;99.90
13436;DHT22;6790;49.520;8.504;2023-07-13T03:35:32;16.10;99.90
13436;DHT22;6790;49.520;8.504;2023-07-13T03:37:59;16.10;99.90
13436;DHT22;6790;49.520;8.504;2023-07-13T03:40:25;16.00;99.90
13436;DHT22;6790;49.520;8.504;2023-07-13T03:42:52;16.00;99.90
13436;DHT22;6790;49.520;8.504;2023-07-13T03:45:19;16.00;99.90
13436;DHT22;6790;49.520;8.504;2023-07-13T03:47:45;16.00;99.90
13436;DHT22;6790;49.520;8.504;2023-07-13T03:50:11;16.00;99.90
13436;DHT22;6790;49.520;8.504;2023-07-13T03:52:37;16.10;99.90
13436;DHT22;6790;49.520;8.504;2023-07-13T03:55:03;16.00;99.90
13436;DHT22;6790;49.520;8.504;2023-07-13T03:57:29;16.10;99.90
13436;DHT22;6790;49.520;8.504;2023-07-13T03:59:54;16.10;99.90
13436;DHT22;6790;49.520;8.504;2023-07-13T04:02:20;15.90;99.90
13436;DHT22;6790;49.520;8.504;2023-07-13T04:04:46;15.70;99.90
13436;DHT22;6790;49.520;8.504;2023-07-13T04:07:12;15.70;99.90
13436;DHT22;6790;49.520;8.504;2023-07-13T04:09:38;15.50;99.90
13436;DHT22;6790;49.520;8.504;2023-07-13T04:12:04;15.50;99.90
13436;DHT22;6790;49.520;8.504;2023-07-13T04:14:30;15.70;99.90
13436;DHT22;6790;49.520;8.504;2023-07-13T04:16:56;15.60;99.90
13436;DHT22;6790;49.520;8.504;2023-07-13T04:19:23;15.60;99.90
13436;DHT22;6790;49.520;8.504;2023-07-13T04:21:48;15.60;99.90
13436;DHT22;6790;49.520;8.504;2023-07-13T04:24:14;15.60;99.90
13436;DHT22;6790;49.520;8.504;2023-07-13T04:26:40;15.50;99.90
13436;DHT22;6790;49.520;8.504;2023-07-13T04:29:06;15.40;99.90
13436;DHT22;6790;49.520;8.504;2023-07-13T04:31:33;15.50;99.90
13436;DHT22;6790;49.520;8.504;2023-07-13T04:33:59;15.60;99.90
13436;DHT22;6790;49.520;8.504;2023-07-13T04:36:25;15.70;99.90
13436;DHT22;6790;49.520;8.504;2023-07-13T04:38:53;15.70;99.90
13436;DHT22;6790;49.520;8.504;2023-07-13T04:41:21;16.00;99.90
13436;DHT22;6790;49.520;8.504;2023-07-13T04:43:47;16.10;99.90
13436;DHT22;6790;49.520;8.504;2023-07-13T04:46:15;16.20;99.90
13436;DHT22;6790;49.520;8.504;2023-07-13T04:48:43;16.20;99.90
13436;DHT22;6790;49.520;8.504;2023-07-13T04:51:09;16.30;99.90
13436;DHT22;6790;49.520;8.504;2023-07-13T04:53:35;16.20;99.90
13436;DHT22;6790;49.520;8.504;2023-07-13T04:56:02;16.20;99.90
13436;DHT22;6790;49.520;8.504;2023-07-13T04:58:28;16.20;99.90
13436;DHT22;6790;49.520;8.504;2023-07-13T05:01:03;16.20;99.90
13436;DHT22;6790;49.520;8.504;2023-07-13T05:03:30;16.10;99.90
13436;DHT22;6790;49.520;8.504;2023-07-13T05:06:04;16.10;99.90
13436;DHT22;6790;49.520;8.504;2023-07-13T05:08:30;16.20;99.90
13436;DHT22;6790;49.520;8.504;2023-07-13T05:10:56;16.20;99.90
13436;DHT22;6790;49.520;8.504;2023-07-13T05:13:25;16.30;99.90
13436;DHT22;6790;49.520;8.504;2023-07-13T05:16:05;16.40;99.90
13436;DHT22;6790;49.520;8.504;2023-07-13T05:18:34;16.50;99.90
13436;DHT22;6790;49.520;8.504;2023-07-13T05:21:03;16.60;99.90
13436;DHT22;6790;49.520;8.504;2023-07-13T05:23:32;16.70;99.90
13436;DHT22;6790;49.520;8.504;2023-07-13T05:25:59;16.80;99.90
13436;DHT22;6790;49.520;8.504;2023-07-13T05:28:26;16.90;99.90
13436;DHT22;6790;49.520;8.504;2023-07-13T05:30:53;16.90;99.90
13436;DHT22;6790;49.520;8.504;2023-07-13T05:33:19;16.90;99.90
13436;DHT22;6790;49.520;8.504;2023-07-13T05:35:46;16.90;99.90
13436;DHT22;6790;49.520;8.504;2023-07-13T05:38:12;17.00;99.90
13436;DHT22;6790;49.520;8.504;2023-07-13T05:40:37;17.10;99.90
13436;DHT22;6790;49.520;8.504;2023-07-13T05:43:03;17.10;99.90
13436;DHT22;6790;49.520;8.504;2023-07-13T05:45:29;17.30;99.90
13436;DHT22;6790;49.520;8.504;2023-07-13T05:47:55;17.40;99.90
13436;DHT22;6790;49.520;8.504;2023-07-13T05:50:20;17.40;99.90
13436;DHT22;6790;49.520;8.504;2023-07-13T05:52:46;17.50;99.90
13436;DHT22;6790;49.520;8.504;2023-07-13T05:55:12;17.60;99.90
13436;DHT22;6790;49.520;8.504;2023-07-13T05:57:38;17.60;99.90
13436;DHT22;6790;49.520;8.504;2023-07-13T06:00:04;17.60;99.90
13436;DHT22;6790;49.520;8.504;2023-07-13T06:02:30;17.60;99.90
13436;DHT22;6790;49.520;8.504;2023-07-13T06:04:56;17.50;99.90
13436;DHT22;6790;49.520;8.504;2023-07-13T06:07:22;17.50;99.90
13436;DHT22;6790;49.520;8.504;2023-07-13T06:09:47;17.60;99.90
13436;DHT22;6790;49.520;8.504;2023-07-13T06:12:13;17.80;99.90
13436;DHT22;6790;49.520;8.504;2023-07-13T06:14:39;18.00;99.90
13436;DHT22;6790;49.520;8.504;2023-07-13T06:17:05;18.10;99.90
13436;DHT22;6790;49.520;8.504;2023-07-13T06:19:31;18.30;99.90
13436;DHT22;6790;49.520;8.504;2023-07-13T06:21:57;18.50;99.90
13436;DHT22;6790;49.520;8.504;2023-07-13T06:24:24;18.70;99.90
13436;DHT22;6790;49.520;8.504;2023-07-13T06:26:53;19.00;99.90
13436;DHT22;6790;49.520;8.504;2023-07-13T06:29:18;19.10;99.90
13436;DHT22;6790;49.520;8.504;2023-07-13T06:31:44;19.10;99.90
13436;DHT22;6790;49.520;8.504;2023-07-13T06:34:10;19.30;98.00
13436;DHT22;6790;49.520;8.504;2023-07-13T06:36:35;19.30;99.20
13436;DHT22;6790;49.520;8.504;2023-07-13T06:39:02;19.20;95.90
13436;DHT22;6790;49.520;8.504;2023-07-13T06:41:28;19.20;96.70
13436;DHT22;6790;49.520;8.504;2023-07-13T06:43:54;19.40;96.40
13436;DHT22;6790;49.520;8.504;2023-07-13T06:46:23;19.70;94.00
13436;DHT22;6790;49.520;8.504;2023-07-13T06:48:49;19.90;93.70
13436;DHT22;6790;49.520;8.504;2023-07-13T06:51:14;20.00;91.10
13436;DHT22;6790;49.520;8.504;2023-07-13T06:53:40;20.20;91.30
13436;DHT22;6790;49.520;8.504;2023-07-13T06:56:06;20.30;87.80
13436;DHT22;6790;49.520;8.504;2023-07-13T06:58:33;20.60;88.80
13436;DHT22;6790;49.520;8.504;2023-07-13T07:00:59;20.40;86.00
13436;DHT22;6790;49.520;8.504;2023-07-13T07:03:25;20.70;86.90
13436;DHT22;6790;49.520;8.504;2023-07-13T07:05:51;20.80;86.00
13436;DHT22;6790;49.520;8.504;2023-07-13T07:08:16;20.80;83.40
13436;DHT22;6790;49.520;8.504;2023-07-13T07:10:42;20.90;81.70
13436;DHT22;6790;49.520;8.504;2023-07-13T07:13:08;21.00;79.60
13436;DHT22;6790;49.520;8.504;2023-07-13T07:15:35;21.30;82.30
13436;DHT22;6790;49.520;8.504;2023-07-13T07:18:01;21.30;77.30
13436;DHT22;6790;49.520;8.504;2023-07-13T07:20:26;21.40;78.00
13436;DHT22;6790;49.520;8.504;2023-07-13T07:22:52;21.40;80.20
13436;DHT22;6790;49.520;8.504;2023-07-13T07:25:19;21.50;78.00
13436;DHT22;6790;49.520;8.504;2023-07-13T07:27:45;21.80;74.70
13436;DHT22;6790;49.520;8.504;2023-07-13T07:30:11;21.80;75.10
13436;DHT22;6790;49.520;8.504;2023-07-13T07:32:37;21.90;76.30
13436;DHT22;6790;49.520;8.504;2023-07-13T07:35:03;22.00;78.10
13436;DHT22;6790;49.520;8.504;2023-07-13T07:37:29;21.70;76.70
13436;DHT22;6790;49.520;8.504;2023-07-13T07:39:55;22.00;80.90
13436;DHT22;6790;49.520;8.504;2023-07-13T07:42:20;22.10;78.30
13436;DHT22;6790;49.520;8.504;2023-07-13T07:44:46;22.20;82.80
13436;DHT22;6790;49.520;8.504;2023-07-13T07:47:12;22.30;82.00
13436;DHT22;6790;49.520;8.504;2023-07-13T07:49:37;22.20;75.20
13436;DHT22;6790;49.520;8.504;2023-07-13T07:52:04;22.40;75.60
13436;DHT22;6790;49.520;8.504;2023-07-13T07:54:29;22.20;73.10
13436;DHT22;6790;49.520;8.504;2023-07-13T07:56:55;22.40;76.80
13436;DHT22;6790;49.520;8.504;2023-07-13T07:59:21;22.70;75.50
13436;DHT22;6790;49.520;8.504;2023-07-13T08:01:47;22.60;75.70
13436;DHT22;6790;49.520;8.504;2023-07-13T08:04:15;22.60;66.60
13436;DHT22;6790;49.520;8.504;2023-07-13T08:06:42;22.50;75.80
13436;DHT22;6790;49.520;8.504;2023-07-13T08:09:07;22.40;71.00
13436;DHT22;6790;49.520;8.504;2023-07-13T08:11:34;22.80;70.40
13436;DHT22;6790;49.520;8.504;2023-07-13T08:13:59;23.10;71.50
13436;DHT22;6790;49.520;8.504;2023-07-13T08:16:26;23.30;64.60
13436;DHT22;6790;49.520;8.504;2023-07-13T08:18:52;23.20;71.40
13436;DHT22;6790;49.520;8.504;2023-07-13T08:21:18;23.00;67.80
13436;DHT22;6790;49.520;8.504;2023-07-13T08:23:47;23.50;64.50
13436;DHT22;6790;49.520;8.504;2023-07-13T08:26:13;23.60;61.00
13436;DHT22;6790;49.520;8.504;2023-07-13T08:28:38;23.70;60.90
13436;DHT22;6790;49.520;8.504;2023-07-13T08:31:06;23.70;62.50
13436;DHT22;6790;49.520;8.504;2023-07-13T08:33:35;23.70;59.90
13436;DHT22;6790;49.520;8.504;2023-07-13T08:36:02;23.80;61.40
13436;DHT22;6790;49.520;8.504;2023-07-13T08:38:28;24.00;58.40
13436;DHT22;6790;49.520;8.504;2023-07-13T08:40:55;24.30;59.60
13436;DHT22;6790;49.520;8.504;2023-07-13T08:43:35;24.50;58.40
13436;DHT22;6790;49.520;8.504;2023-07-13T08:46:13;24.80;55.90
13436;DHT22;6790;49.520;8.504;2023-07-13T08:48:46;24.70;54.50
13436;DHT22;6790;49.520;8.504;2023-07-13T08:51:50;24.30;55.60
13436;DHT22;6790;49.520;8.504;2023-07-13T08:57:21;23.90;57.60
13436;DHT22;6790;49.520;8.504;2023-07-13T08:59:50;24.10;56.30
13436;DHT22;6790;49.520;8.504;2023-07-13T09:04:55;24.50;58.00
13436;DHT22;6790;49.520;8.504;2023-07-13T09:10:32;25.00;57.70
13436;DHT22;6790;49.520;8.504;2023-07-13T09:15:49;25.20;57.10
13436;DHT22;6790;49.520;8.504;2023-07-13T09:18:23;25.20;52.60
13436;DHT22;6790;49.520;8.504;2023-07-13T09:20:56;25.00;57.10
13436;DHT22;6790;49.520;8.504;2023-07-13T09:23:27;25.10;50.30
13436;DHT22;6790;49.520;8.504;2023-07-13T09:26:03;25.30;51.80
13436;DHT22;6790;49.520;8.504;2023-07-13T09:28:35;25.70;48.30
13436;DHT22;6790;49.520;8.504;2023-07-13T09:31:11;25.60;48.20
13436;DHT22;6790;49.520;8.504;2023-07-13T09:33:40;25.90;44.60
13436;DHT22;6790;49.520;8.504;2023-07-13T09:38:52;25.30;45.10
13436;DHT22;6790;49.520;8.504;2023-07-13T09:41:48;24.90;49.00
13436;DHT22;6790;49.520;8.504;2023-07-13T09:44:28;24.70;44.80
13436;DHT22;6790;49.520;8.504;2023-07-13T09:47:01;24.70;49.40
13436;DHT22;6790;49.520;8.504;2023-07-13T09:49:35;24.90;46.60
13436;DHT22;6790;49.520;8.504;2023-07-13T09:52:05;24.70;45.80
13436;DHT22;6790;49.520;8.504;2023-07-13T09:54:36;24.70;44.40
13436;DHT22;6790;49.520;8.504;2023-07-13T09:57:11;24.90;43.30
13436;DHT22;6790;49.520;8.504;2023-07-13T09:59:45;24.70;44.90
13436;DHT22;6790;49.520;8.504;2023-07-13T10:02:33;24.50;45.60
13436;DHT22;6790;49.520;8.504;2023-07-13T10:05:14;24.80;46.60
13436;DHT22;6790;49.520;8.504;2023-07-13T10:07:44;25.60;46.10
13436;DHT22;6790;49.520;8.504;2023-07-13T10:10:22;25.40;44.50
13436;DHT22;6790;49.520;8.504;2023-07-13T10:12:49;24.90;43.70
13436;DHT22;6790;49.520;8.504;2023-07-13T10:15:21;24.70;42.70
13436;DHT22;6790;49.520;8.504;2023-07-13T10:17:50;24.80;43.20
13436;DHT22;6790;49.520;8.504;2023-07-13T10:20:16;25.20;45.10
13436;DHT22;6790;49.520;8.504;2023-07-13T10:22:49;25.50;41.90
13436;DHT22;6790;49.520;8.504;2023-07-13T10:25:20;25.20;41.10
13436;DHT22;6790;49.520;8.504;2023-07-13T10:27:50;24.80;44.30
13436;DHT22;6790;49.520;8.504;2023-07-13T10:30:32;24.50;44.40
13436;DHT22;6790;49.520;8.504;2023-07-13T10:33:02;24.40;43.60
13436;DHT22;6790;49.520;8.504;2023-07-13T10:35:30;24.40;45.60
13436;DHT22;6790;49.520;8.504;2023-07-13T10:38:10;24.60;44.40
13436;DHT22;6790;49.520;8.504;2023-07-13T10:40:41;24.60;44.80
13436;DHT22;6790;49.520;8.504;2023-07-13T10:43:15;25.00;44.70
13436;DHT22;6790;49.520;8.504;2023-07-13T10:45:45;25.50;43.70
13436;DHT22;6790;49.520;8.504;2023-07-13T10:48:14;25.60;42.80
13436;DHT22;6790;49.520;8.504;2023-07-13T10:50:43;25.50;45.00
13436;DHT22;6790;49.520;8.504;2023-07-13T10:53:28;25.20;41.00
13436;DHT22;6790;49.520;8.504;2023-07-13T10:56:01;25.00;39.00
13436;DHT22;6790;49.520;8.504;2023-07-13T10:58:38;24.90;40.10
13436;DHT22;6790;49.520;8.504;2023-07-13T11:03:53;24.80;40.30
13436;DHT22;6790;49.520;8.504;2023-07-13T11:11:56;25.20;44.00
13436;DHT22;6790;49.520;8.504;2023-07-13T11:15:11;25.20;40.80
13436;DHT22;6790;49.520;8.504;2023-07-13T11:20:31;25.20;40.90
13436;DHT22;6790;49.520;8.504;2023-07-13T11:25:41;24.90;39.60
13436;DHT22;6790;49.520;8.504;2023-07-13T11:30:42;24.70;38.50
13436;DHT22;6790;49.520;8.504;2023-07-13T11:36:22;25.70;35.30
13436;DHT22;6790;49.520;8.504;2023-07-13T11:44:20;25.80;36.10
13436;DHT22;6790;49.520;8.504;2023-07-13T11:46:52;25.80;37.50
13436;DHT22;6790;49.520;8.504;2023-07-13T11:49:23;26.60;37.30
13436;DHT22;6790;49.520;8.504;2023-07-13T11:51:51;27.20;37.30
13436;DHT22;6790;49.520;8.504;2023-07-13T11:54:29;27.40;36.10
13436;DHT22;6790;49.520;8.504;2023-07-13T11:57:02;27.50;34.30
13436;DHT22;6790;49.520;8.504;2023-07-13T11:59:33;27.20;34.50
13436;DHT22;6790;49.520;8.504;2023-07-13T12:02:25;27.30;31.80
13436;DHT22;6790;49.520;8.504;2023-07-13T12:05:01;27.30;33.40
13436;DHT22;6790;49.520;8.504;2023-07-13T12:07:30;27.60;34.00
13436;DHT22;6790;49.520;8.504;2023-07-13T12:12:53;27.40;29.50
13436;DHT22;6790;49.520;8.504;2023-07-13T12:15:20;26.70;34.10
13436;DHT22;6790;49.520;8.504;2023-07-13T12:17:48;26.40;35.10
13436;DHT22;6790;49.520;8.504;2023-07-13T12:20:25;26.30;32.80
13436;DHT22;6790;49.520;8.504;2023-07-13T12:22:53;26.00;36.10
13436;DHT22;6790;49.520;8.504;2023-07-13T12:25:20;25.70;36.20
13436;DHT22;6790;49.520;8.504;2023-07-13T12:27:49;25.90;35.30
13436;DHT22;6790;49.520;8.504;2023-07-13T12:30:36;25.90;36.10
13436;DHT22;6790;49.520;8.504;2023-07-13T12:33:07;25.90;35.30
13436;DHT22;6790;49.520;8.504;2023-07-13T12:35:46;25.70;35.70
13436;DHT22;6790;49.520;8.504;2023-07-13T12:38:13;25.60;35.00
13436;DHT22;6790;49.520;8.504;2023-07-13T12:40:39;25.50;35.00
13436;DHT22;6790;49.520;8.504;2023-07-13T12:43:11;25.60;34.70
13436;DHT22;6790;49.520;8.504;2023-07-13T12:45:39;25.90;34.60
13436;DHT22;6790;49.520;8.504;2023-07-13T12:48:15;26.20;35.00
13436;DHT22;6790;49.520;8.504;2023-07-13T12:50:47;26.30;38.20
13436;DHT22;6790;49.520;8.504;2023-07-13T12:53:23;26.40;32.20
13436;DHT22;6790;49.520;8.504;2023-07-13T12:55:56;27.20;29.50
13436;DHT22;6790;49.520;8.504;2023-07-13T12:58:28;27.60;29.80
13436;DHT22;6790;49.520;8.504;2023-07-13T13:01:00;27.60;29.60
13436;DHT22;6790;49.520;8.504;2023-07-13T13:03:39;27.70;29.30
13436;DHT22;6790;49.520;8.504;2023-07-13T13:08:47;26.60;35.80
13436;DHT22;6790;49.520;8.504;2023-07-13T13:11:17;26.50;32.90
13436;DHT22;6790;49.520;8.504;2023-07-13T13:13:44;26.10;34.80
13436;DHT22;6790;49.520;8.504;2023-07-13T13:16:33;25.90;39.00
13436;DHT22;6790;49.520;8.504;2023-07-13T13:21:50;26.30;41.90
13436;DHT22;6790;49.520;8.504;2023-07-13T13:24:20;26.60;41.00
13436;DHT22;6790;49.520;8.504;2023-07-13T13:26:49;26.50;37.00
13436;DHT22;6790;49.520;8.504;2023-07-13T13:29:20;26.20;35.40
13436;DHT22;6790;49.520;8.504;2023-07-13T13:31:50;25.90;34.60
13436;DHT22;6790;49.520;8.504;2023-07-13T13:34:17;25.80;37.10
13436;DHT22;6790;49.520;8.504;2023-07-13T13:36:44;25.70;36.20
13436;DHT22;6790;49.520;8.504;2023-07-13T13:39:34;25.80;33.70
13436;DHT22;6790;49.520;8.504;2023-07-13T13:42:03;25.70;38.40
13436;DHT22;6790;49.520;8.504;2023-07-13T13:44:29;25.70;37.00
13436;DHT22;6790;49.520;8.504;2023-07-13T13:46:55;25.80;37.10
13436;DHT22;6790;49.520;8.504;2023-07-13T13:49:26;25.70;41.10
13436;DHT22;6790;49.520;8.504;2023-07-13T13:51:54;25.70;37.70
13436;DHT22;6790;49.520;8.504;2023-07-13T13:54:21;25.80;38.10
13436;DHT22;6790;49.520;8.504;2023-07-13T13:56:50;26.00;37.30
13436;DHT22;6790;49.520;8.504;2023-07-13T13:59:16;26.20;35.60
13436;DHT22;6790;49.520;8.504;2023-07-13T14:01:44;26.20;36.80
13436;DHT22;6790;49.520;8.504;2023-07-13T14:04:19;26.00;41.30
13436;DHT22;6790;49.520;8.504;2023-07-13T14:06:46;25.90;41.20
13436;DHT22;6790;49.520;8.504;2023-07-13T14:09:15;25.80;39.40
13436;DHT22;6790;49.520;8.504;2023-07-13T14:11:43;25.70;37.00
13436;DHT22;6790;49.520;8.504;2023-07-13T14:14:23;25.60;37.70
13436;DHT22;6790;49.520;8.504;2023-07-13T14:16:50;25.60;36.80
13436;DHT22;6790;49.520;8.504;2023-07-13T14:19:21;25.60;40.60
13436;DHT22;6790;49.520;8.504;2023-07-13T14:21:46;25.90;37.70
13436;DHT22;6790;49.520;8.504;2023-07-13T14:24:14;26.10;45.10
13436;DHT22;6790;49.520;8.504;2023-07-13T14:26:41;26.20;37.30
13436;DHT22;6790;49.520;8.504;2023-07-13T14:29:14;26.20;37.10
13436;DHT22;6790;49.520;8.504;2023-07-13T14:31:41;25.90;38.00
13436;DHT22;6790;49.520;8.504;2023-07-13T14:34:11;25.80;38.90
13436;DHT22;6790;49.520;8.504;2023-07-13T14:36:48;25.80;37.60
13436;DHT22;6790;49.520;8.504;2023-07-13T14:39:18;25.80;36.20
13436;DHT22;6790;49.520;8.504;2023-07-13T14:41:49;25.90;37.60
13436;DHT22;6790;49.520;8.504;2023-07-13T14:44:20;25.80;36.80
13436;DHT22;6790;49.520;8.504;2023-07-13T14:46:48;25.50;35.90
13436;DHT22;6790;49.520;8.504;2023-07-13T14:49:29;25.40;36.70
13436;DHT22;6790;49.520;8.504;2023-07-13T14:52:12;25.20;38.80
13436;DHT22;6790;49.520;8.504;2023-07-13T14:54:42;25.10;39.80
13436;DHT22;6790;49.520;8.504;2023-07-13T14:57:13;25.10;39.10
13436;DHT22;6790;49.520;8.504;2023-07-13T14:59:46;25.20;38.20
13436;DHT22;6790;49.520;8.504;2023-07-13T15:04:39;25.40;38.70
13436;DHT22;6790;49.520;8.504;2023-07-13T15:07:05;25.50;40.40
13436;DHT22;6790;49.520;8.504;2023-07-13T15:09:34;25.70;39.30
13436;DHT22;6790;49.520;8.504;2023-07-13T15:11:59;25.80;42.00
13436;DHT22;6790;49.520;8.504;2023-07-13T15:14:26;25.80;36.70
13436;DHT22;6790;49.520;8.504;2023-07-13T15:16:54;25.70;36.30
13436;DHT22;6790;49.520;8.504;2023-07-13T15:19:21;25.40;41.30
13436;DHT22;6790;49.520;8.504;2023-07-13T15:21:49;25.30;36.60
13436;DHT22;6790;49.520;8.504;2023-07-13T15:24:15;25.30;37.70
13436;DHT22;6790;49.520;8.504;2023-07-13T15:26:42;25.40;35.40
13436;DHT22;6790;49.520;8.504;2023-07-13T15:29:12;25.20;35.80
13436;DHT22;6790;49.520;8.504;2023-07-13T15:31:37;25.10;36.90
13436;DHT22;6790;49.520;8.504;2023-07-13T15:34:22;25.00;41.10
13436;DHT22;6790;49.520;8.504;2023-07-13T15:36:50;24.90;40.00
13436;DHT22;6790;49.520;8.504;2023-07-13T15:39:16;24.90;42.50
13436;DHT22;6790;49.520;8.504;2023-07-13T15:41:43;25.00;43.30
13436;DHT22;6790;49.520;8.504;2023-07-13T15:44:31;25.10;40.20
13436;DHT22;6790;49.520;8.504;2023-07-13T15:46:57;25.10;45.60
13436;DHT22;6790;49.520;8.504;2023-07-13T15:49:25;25.10;40.40
13436;DHT22;6790;49.520;8.504;2023-07-13T15:51:51;25.20;43.00
13436;DHT22;6790;49.520;8.504;2023-07-13T15:54:18;25.20;40.30
13436;DHT22;6790;49.520;8.504;2023-07-13T15:56:47;25.20;39.90
13436;DHT22;6790;49.520;8.504;2023-07-13T15:59:16;25.30;38.30
13436;DHT22;6790;49.520;8.504;2023-07-13T16:01:42;25.30;38.00
13436;DHT22;6790;49.520;8.504;2023-07-13T16:04:11;25.30;37.40
13436;DHT22;6790;49.520;8.504;2023-07-13T16:06:40;25.40;39.80
13436;DHT22;6790;49.520;8.504;2023-07-13T16:09:12;25.50;38.00
13436;DHT22;6790;49.520;8.504;2023-07-13T16:11:43;25.30;39.00
13436;DHT22;6790;49.520;8.504;2023-07-13T16:14:13;25.20;37.30
13436;DHT22;6790;49.520;8.504;2023-07-13T16:16:40;25.00;38.60
13436;DHT22;6790;49.520;8.504;2023-07-13T16:19:06;24.80;38.40
13436;DHT22;6790;49.520;8.504;2023-07-13T16:21:39;24.70;40.50
13436;DHT22;6790;49.520;8.504;2023-07-13T16:24:19;24.60;41.50
13436;DHT22;6790;49.520;8.504;2023-07-13T16:26:46;24.60;41.50
13436;DHT22;6790;49.520;8.504;2023-07-13T16:29:18;24.40;41.60
13436;DHT22;6790;49.520;8.504;2023-07-13T16:32:01;24.40;40.70
13436;DHT22;6790;49.520;8.504;2023-07-13T16:34:29;24.40;42.00
13436;DHT22;6790;49.520;8.504;2023-07-13T16:36:56;24.30;40.30
13436;DHT22;6790;49.520;8.504;2023-07-13T16:39:22;24.30;42.20
13436;DHT22;6790;49.520;8.504;2023-07-13T16:41:51;24.30;39.50
13436;DHT22;6790;49.520;8.504;2023-07-13T16:44:21;24.30;38.40
13436;DHT22;6790;49.520;8.504;2023-07-13T16:46:53;24.30;40.20
13436;DHT22;6790;49.520;8.504;2023-07-13T16:49:28;24.30;38.00